sensor_id;sensor_type;location;lat;lon;timestamp;pressure;altitude;pressure_sealevel;temperature;humidity
72942;BME280;69665;55.822;37.330;2023-05-12T00:01:20;100125.47;;;10.17;48.25
72942;BME280;69665;55.822;37.330;2023-05-12T00:03:46;100128.25;;;10.13;49.00
72942;BME280;69665;55.822;37.330;2023-05-12T00:06:11;100130.97;;;10.10;49.09
72942;BME280;69665;55.822;37.330;2023-05-12T00:08:37;100110.25;;;9.98;48.90
72942;BME280;69665;55.822;37.330;2023-05-12T00:11:02;100127.69;;;10.02;48.97
72942;BME280;69665;55.822;37.330;2023-05-12T00:13:28;100105.16;;;9.92;48.58
72942;BME280;69665;55.822;37.330;2023-05-12T00:15:54;100117.59;;;9.86;48.52
72942;BME280;69665;55.822;37.330;2023-05-12T00:18:24;100129.66;;;9.94;48.79
72942;BME280;69665;55.822;37.330;2023-05-12T00:20:49;100114.22;;;9.81;49.47
72942;BME280;69665;55.822;37.330;2023-05-12T00:23:15;100123.78;;;9.84;48.82
72942;BME280;69665;55.822;37.330;2023-05-12T00:25:44;100107.34;;;9.76;49.31
72942;BME280;69665;55.822;37.330;2023-05-12T00:28:10;100124.81;;;9.78;49.35
72942;BME280;69665;55.822;37.330;2023-05-12T00:30:35;100122.25;;;9.75;49.53
72942;BME280;69665;55.822;37.330;2023-05-12T00:33:01;100120.63;;;9.71;49.74
72942;BME280;69665;55.822;37.330;2023-05-12T00:35:27;100118.00;;;9.71;49.70
72942;BME280;69665;55.822;37.330;2023-05-12T00:37:52;100099.06;;;9.59;49.80
72942;BME280;69665;55.822;37.330;2023-05-12T00:40:18;100118.16;;;9.65;49.84
72942;BME280;69665;55.822;37.330;2023-05-12T00:42:44;100117.34;;;9.62;49.80
72942;BME280;69665;55.822;37.330;2023-05-12T00:45:09;100098.34;;;9.52;50.44
72942;BME280;69665;55.822;37.330;2023-05-12T00:47:35;100110.53;;;9.56;49.89
72942;BME280;69665;55.822;37.330;2023-05-12T00:50:02;100107.13;;;9.51;49.94
72942;BME280;69665;55.822;37.330;2023-05-12T00:52:29;100114.16;;;9.50;50.21
72942;BME280;69665;55.822;37.330;2023-05-12T00:54:56;100109.84;;;9.48;50.25
72942;BME280;69665;55.822;37.330;2023-05-12T00:57:24;100116.91;;;9.46;50.26
72942;BME280;69665;55.822;37.330;2023-05-12T00:59:50;100100.50;;;9.36;50.01
72942;BME280;69665;55.822;37.330;2023-05-12T01:02:16;100106.72;;;9.34;50.52
72942;BME280;69665;55.822;37.330;2023-05-12T01:04:41;100114.47;;;9.38;50.27
72942;BME280;69665;55.822;37.330;2023-05-12T01:07:26;100104.19;;;9.31;52.23
72942;BME280;69665;55.822;37.330;2023-05-12T01:09:55;100098.28;;;9.21;50.74
72942;BME280;69665;55.822;37.330;2023-05-12T01:12:22;100105.16;;;9.27;50.86
72942;BME280;69665;55.822;37.330;2023-05-12T01:14:49;100103.41;;;9.26;50.94
72942;BME280;69665;55.822;37.330;2023-05-12T01:17:18;100106.88;;;9.28;50.50
72942;BME280;69665;55.822;37.330;2023-05-12T01:19:51;100106.94;;;9.25;51.12
72942;BME280;69665;55.822;37.330;2023-05-12T01:22:18;100102.75;;;9.17;51.22
72942;BME280;69665;55.822;37.330;2023-05-12T01:24:48;100091.50;;;9.11;50.77
72942;BME280;69665;55.822;37.330;2023-05-12T01:27:15;100114.06;;;9.19;50.95
72942;BME280;69665;55.822;37.330;2023-05-12T01:29:46;100104.53;;;9.15;51.72
72942;BME280;69665;55.822;37.330;2023-05-12T01:32:14;100095.09;;;9.08;51.43
72942;BME280;69665;55.822;37.330;2023-05-12T01:34:44;100104.53;;;9.15;51.38
72942;BME280;69665;55.822;37.330;2023-05-12T01:37:10;100110.63;;;9.17;50.81
72942;BME280;69665;55.822;37.330;2023-05-12T01:39:37;100076.03;;;9.00;50.95
72942;BME280;69665;55.822;37.330;2023-05-12T01:42:04;100101.84;;;9.18;50.71
72942;BME280;69665;55.822;37.330;2023-05-12T01:44:30;100078.47;;;9.08;51.08
72942;BME280;69665;55.822;37.330;2023-05-12T01:46:56;100092.22;;;9.17;50.68
72942;BME280;69665;55.822;37.330;2023-05-12T01:49:22;100109.47;;;9.29;50.88
72942;BME280;69665;55.822;37.330;2023-05-12T01:51:48;100104.13;;;9.32;50.53
72942;BME280;69665;55.822;37.330;2023-05-12T01:54:17;100110.06;;;9.39;50.65
72942;BME280;69665;55.822;37.330;2023-05-12T01:56:42;100110.81;;;9.44;50.66
72942;BME280;69665;55.822;37.330;2023-05-12T01:59:08;100103.75;;;9.46;49.89
72942;BME280;69665;55.822;37.330;2023-05-12T02:01:34;100111.38;;;9.57;50.56
72942;BME280;69665;55.822;37.330;2023-05-12T02:04:02;100106.94;;;9.59;50.00
72942;BME280;69665;55.822;37.330;2023-05-12T02:06:29;100103.19;;;9.67;50.31
72942;BME280;69665;55.822;37.330;2023-05-12T02:08:55;100111.63;;;9.80;49.74
72942;BME280;69665;55.822;37.330;2023-05-12T02:11:21;100114.13;;;9.84;49.53
72942;BME280;69665;55.822;37.330;2023-05-12T02:13:47;100115.59;;;9.95;49.43
72942;BME280;69665;55.822;37.330;2023-05-12T02:16:13;100092.00;;;9.92;48.92
72942;BME280;69665;55.822;37.330;2023-05-12T02:18:40;100102.84;;;10.12;49.55
72942;BME280;69665;55.822;37.330;2023-05-12T02:21:25;100088.78;;;10.13;48.67
72942;BME280;69665;55.822;37.330;2023-05-12T02:23:52;100095.34;;;10.29;48.61
72942;BME280;69665;55.822;37.330;2023-05-12T02:26:18;100111.44;;;10.48;48.11
72942;BME280;69665;55.822;37.330;2023-05-12T02:28:44;100103.09;;;10.63;48.34
72942;BME280;69665;55.822;37.330;2023-05-12T02:31:09;100099.19;;;10.75;47.30
72942;BME280;69665;55.822;37.330;2023-05-12T02:33:35;100101.09;;;10.98;47.00
72942;BME280;69665;55.822;37.330;2023-05-12T02:36:01;100107.00;;;11.32;46.95
72942;BME280;69665;55.822;37.330;2023-05-12T02:38:27;100093.56;;;11.65;46.76
72942;BME280;69665;55.822;37.330;2023-05-12T02:40:54;100092.38;;;12.45;46.48
72942;BME280;69665;55.822;37.330;2023-05-12T02:43:20;100098.72;;;13.70;44.57
72942;BME280;69665;55.822;37.330;2023-05-12T02:45:46;100101.41;;;15.03;43.20
72942;BME280;69665;55.822;37.330;2023-05-12T02:48:11;100094.00;;;16.29;41.31
72942;BME280;69665;55.822;37.330;2023-05-12T02:50:37;100097.88;;;17.48;39.35
72942;BME280;69665;55.822;37.330;2023-05-12T02:53:02;100093.16;;;18.54;37.49
72942;BME280;69665;55.822;37.330;2023-05-12T02:55:28;100091.00;;;19.41;36.01
72942;BME280;69665;55.822;37.330;2023-05-12T02:57:55;100096.75;;;19.35;35.09
72942;BME280;69665;55.822;37.330;2023-05-12T03:00:20;100085.75;;;18.45;34.74
72942;BME280;69665;55.822;37.330;2023-05-12T03:02:47;100106.34;;;17.70;35.28
72942;BME280;69665;55.822;37.330;2023-05-12T03:05:12;100099.09;;;16.96;35.83
72942;BME280;69665;55.822;37.330;2023-05-12T03:07:38;100109.63;;;16.35;36.57
72942;BME280;69665;55.822;37.330;2023-05-12T03:10:04;100098.41;;;15.80;36.92
72942;BME280;69665;55.822;37.330;2023-05-12T03:12:30;100107.50;;;15.40;37.27
72942;BME280;69665;55.822;37.330;2023-05-12T03:14:56;100092.78;;;14.98;37.34
72942;BME280;69665;55.822;37.330;2023-05-12T03:17:22;100071.56;;;14.62;37.80
72942;BME280;69665;55.822;37.330;2023-05-12T03:19:48;100100.22;;;14.54;38.72
72942;BME280;69665;55.822;37.330;2023-05-12T03:22:16;100118.34;;;14.44;38.67
72942;BME280;69665;55.822;37.330;2023-05-12T03:24:44;100100.88;;;14.20;38.91
72942;BME280;69665;55.822;37.330;2023-05-12T03:27:10;100119.38;;;14.21;39.97
72942;BME280;69665;55.822;37.330;2023-05-12T03:29:36;100120.34;;;14.19;39.89
72942;BME280;69665;55.822;37.330;2023-05-12T03:32:02;100116.25;;;14.12;39.67
72942;BME280;69665;55.822;37.330;2023-05-12T03:34:28;100109.56;;;14.03;39.35
72942;BME280;69665;55.822;37.330;2023-05-12T03:36:56;100115.41;;;14.11;39.79
72942;BME280;69665;55.822;37.330;2023-05-12T03:39:23;100121.22;;;14.19;39.79
72942;BME280;69665;55.822;37.330;2023-05-12T03:41:49;100101.53;;;14.25;39.38
72942;BME280;69665;55.822;37.330;2023-05-12T03:44:16;100122.19;;;14.56;39.36
72942;BME280;69665;55.822;37.330;2023-05-12T03:46:44;100094.06;;;14.72;39.10
72942;BME280;69665;55.822;37.330;2023-05-12T03:49:10;100112.06;;;15.02;39.43
72942;BME280;69665;55.822;37.330;2023-05-12T03:51:36;100108.50;;;15.20;38.74
72942;BME280;69665;55.822;37.330;2023-05-12T03:54:01;100110.09;;;15.41;38.30
72942;BME280;69665;55.822;37.330;2023-05-12T03:56:27;100099.78;;;15.52;38.89
72942;BME280;69665;55.822;37.330;2023-05-12T03:58:53;100117.03;;;15.95;37.71
72942;BME280;69665;55.822;37.330;2023-05-12T04:01:19;100109.09;;;16.11;37.70
72942;BME280;69665;55.822;37.330;2023-05-12T04:03:45;100100.56;;;16.22;37.52
72942;BME280;69665;55.822;37.330;2023-05-12T04:06:11;100104.72;;;16.43;37.51
72942;BME280;69665;55.822;37.330;2023-05-12T04:08:36;100093.59;;;16.52;36.91
72942;BME280;69665;55.822;37.330;2023-05-12T04:11:02;100099.91;;;16.83;36.79
72942;BME280;69665;55.822;37.330;2023-05-12T04:13:29;100098.50;;;17.07;36.32
72942;BME280;69665;55.822;37.330;2023-05-12T04:15:59;100085.59;;;19.16;35.61
72942;BME280;69665;55.822;37.330;2023-05-12T04:18:26;100069.50;;;19.70;34.09
72942;BME280;69665;55.822;37.330;2023-05-12T04:20:52;100073.38;;;20.53;33.15
72942;BME280;69665;55.822;37.330;2023-05-12T04:23:18;100077.97;;;21.59;32.19
72942;BME280;69665;55.822;37.330;2023-05-12T04:25:44;100079.34;;;22.22;31.49
72942;BME280;69665;55.822;37.330;2023-05-12T04:28:10;100078.47;;;22.55;30.95
72942;BME280;69665;55.822;37.330;2023-05-12T04:30:38;100082.50;;;23.47;30.30
72942;BME280;69665;55.822;37.330;2023-05-12T04:33:04;100078.19;;;23.34;29.64
72942;BME280;69665;55.822;37.330;2023-05-12T04:35:29;100070.03;;;22.82;29.54
72942;BME280;69665;55.822;37.330;2023-05-12T04:37:57;100075.06;;;24.93;28.40
72942;BME280;69665;55.822;37.330;2023-05-12T04:40:22;100072.47;;;27.88;26.71
72942;BME280;69665;55.822;37.330;2023-05-12T04:42:49;100082.69;;;30.42;24.55
72942;BME280;69665;55.822;37.330;2023-05-12T04:45:15;100081.56;;;30.84;23.65
72942;BME280;69665;55.822;37.330;2023-05-12T04:47:40;100090.97;;;32.48;22.93
72942;BME280;69665;55.822;37.330;2023-05-12T04:50:06;100088.97;;;34.42;21.64
72942;BME280;69665;55.822;37.330;2023-05-12T04:52:32;100090.50;;;35.99;20.30
72942;BME280;69665;55.822;37.330;2023-05-12T04:54:58;100085.53;;;37.50;19.35
72942;BME280;69665;55.822;37.330;2023-05-12T04:57:24;100088.66;;;38.16;18.91
72942;BME280;69665;55.822;37.330;2023-05-12T04:59:50;100085.09;;;37.53;19.30
72942;BME280;69665;55.822;37.330;2023-05-12T05:02:15;100080.84;;;37.57;19.17
72942;BME280;69665;55.822;37.330;2023-05-12T05:04:41;100084.75;;;39.27;18.40
72942;BME280;69665;55.822;37.330;2023-05-12T05:07:07;100090.78;;;40.82;16.94
72942;BME280;69665;55.822;37.330;2023-05-12T05:09:32;100085.16;;;41.96;16.42
72942;BME280;69665;55.822;37.330;2023-05-12T05:11:58;100088.22;;;42.93;15.66
72942;BME280;69665;55.822;37.330;2023-05-12T05:14:23;100084.31;;;43.70;15.58
72942;BME280;69665;55.822;37.330;2023-05-12T05:16:49;100080.16;;;44.05;15.38
72942;BME280;69665;55.822;37.330;2023-05-12T05:19:15;100083.66;;;44.32;15.11
72942;BME280;69665;55.822;37.330;2023-05-12T05:21:41;100083.44;;;45.01;14.73
72942;BME280;69665;55.822;37.330;2023-05-12T05:24:07;100071.34;;;45.63;14.59
72942;BME280;69665;55.822;37.330;2023-05-12T05:26:33;100070.19;;;46.15;14.38
72942;BME280;69665;55.822;37.330;2023-05-12T05:28:59;100073.97;;;46.70;14.52
72942;BME280;69665;55.822;37.330;2023-05-12T05:31:25;100091.59;;;47.09;13.83
72942;BME280;69665;55.822;37.330;2023-05-12T05:33:53;100078.50;;;47.54;13.91
72942;BME280;69665;55.822;37.330;2023-05-12T05:36:23;100075.31;;;48.00;12.23
72942;BME280;69665;55.822;37.330;2023-05-12T05:38:50;100079.31;;;48.65;13.38
72942;BME280;69665;55.822;37.330;2023-05-12T05:41:16;100080.38;;;49.12;13.78
72942;BME280;69665;55.822;37.330;2023-05-12T05:43:45;100069.75;;;49.65;11.88
72942;BME280;69665;55.822;37.330;2023-05-12T05:46:11;100061.00;;;49.85;12.96
72942;BME280;69665;55.822;37.330;2023-05-12T05:48:37;100081.69;;;50.36;13.48
72942;BME280;69665;55.822;37.330;2023-05-12T05:51:03;100078.09;;;50.99;12.95
72942;BME280;69665;55.822;37.330;2023-05-12T05:53:29;100073.31;;;51.57;13.19
72942;BME280;69665;55.822;37.330;2023-05-12T05:55:54;100078.47;;;51.19;12.95
72942;BME280;69665;55.822;37.330;2023-05-12T05:58:21;100055.50;;;50.40;13.24
72942;BME280;69665;55.822;37.330;2023-05-12T06:00:47;100066.38;;;50.55;13.27
72942;BME280;69665;55.822;37.330;2023-05-12T06:03:13;100071.34;;;51.58;13.08
72942;BME280;69665;55.822;37.330;2023-05-12T06:05:38;100075.47;;;52.05;12.62
72942;BME280;69665;55.822;37.330;2023-05-12T06:08:06;100075.47;;;52.36;13.09
72942;BME280;69665;55.822;37.330;2023-05-12T06:10:33;100049.41;;;52.22;13.26
72942;BME280;69665;55.822;37.330;2023-05-12T06:12:59;100064.81;;;52.81;12.76
72942;BME280;69665;55.822;37.330;2023-05-12T06:15:25;100071.06;;;53.27;12.77
72942;BME280;69665;55.822;37.330;2023-05-12T06:17:50;100065.22;;;53.32;12.63
72942;BME280;69665;55.822;37.330;2023-05-12T06:20:16;100059.94;;;52.47;12.96
72942;BME280;69665;55.822;37.330;2023-05-12T06:22:43;100063.06;;;51.98;13.00
72942;BME280;69665;55.822;37.330;2023-05-12T06:25:09;100055.22;;;51.64;12.79
72942;BME280;69665;55.822;37.330;2023-05-12T06:27:36;100050.06;;;52.19;12.70
72942;BME280;69665;55.822;37.330;2023-05-12T06:30:02;100059.56;;;53.14;12.36
72942;BME280;69665;55.822;37.330;2023-05-12T06:32:29;100052.31;;;52.96;12.69
72942;BME280;69665;55.822;37.330;2023-05-12T06:34:55;100056.28;;;53.47;12.58
72942;BME280;69665;55.822;37.330;2023-05-12T06:37:22;100071.47;;;53.54;12.50
72942;BME280;69665;55.822;37.330;2023-05-12T06:39:47;100063.00;;;52.85;11.73
72942;BME280;69665;55.822;37.330;2023-05-12T06:42:13;100057.25;;;52.03;12.54
72942;BME280;69665;55.822;37.330;2023-05-12T06:44:40;100038.84;;;52.84;12.06
72942;BME280;69665;55.822;37.330;2023-05-12T06:47:06;100046.81;;;53.43;10.69
72942;BME280;69665;55.822;37.330;2023-05-12T06:49:31;100039.81;;;52.23;13.03
72942;BME280;69665;55.822;37.330;2023-05-12T06:51:59;100049.47;;;50.33;9.43
72942;BME280;69665;55.822;37.330;2023-05-12T06:54:25;100034.19;;;50.25;12.92
72942;BME280;69665;55.822;37.330;2023-05-12T06:56:51;100039.69;;;49.57;12.70
72942;BME280;69665;55.822;37.330;2023-05-12T06:59:16;100042.78;;;49.18;12.89
72942;BME280;69665;55.822;37.330;2023-05-12T07:01:45;100045.00;;;50.32;12.18
72942;BME280;69665;55.822;37.330;2023-05-12T07:04:11;100043.34;;;51.08;11.96
72942;BME280;69665;55.822;37.330;2023-05-12T07:06:36;100042.22;;;51.54;11.71
72942;BME280;69665;55.822;37.330;2023-05-12T07:09:02;100027.78;;;52.31;11.86
72942;BME280;69665;55.822;37.330;2023-05-12T07:11:28;100037.81;;;52.63;11.20
72942;BME280;69665;55.822;37.330;2023-05-12T07:13:54;100036.22;;;53.05;11.65
72942;BME280;69665;55.822;37.330;2023-05-12T07:16:19;100021.47;;;52.74;11.72
72942;BME280;69665;55.822;37.330;2023-05-12T07:18:45;100047.84;;;52.38;10.79
72942;BME280;69665;55.822;37.330;2023-05-12T07:21:11;100038.16;;;50.66;11.91
72942;BME280;69665;55.822;37.330;2023-05-12T07:23:37;100036.38;;;50.15;11.90
72942;BME280;69665;55.822;37.330;2023-05-12T07:26:05;100019.81;;;49.53;11.85
72942;BME280;69665;55.822;37.330;2023-05-12T07:28:32;100021.34;;;49.78;11.72
72942;BME280;69665;55.822;37.330;2023-05-12T07:31:06;100034.72;;;50.41;11.12
72942;BME280;69665;55.822;37.330;2023-05-12T07:33:33;100005.91;;;49.81;11.32
72942;BME280;69665;55.822;37.330;2023-05-12T07:36:00;100015.69;;;48.33;12.36
72942;BME280;69665;55.822;37.330;2023-05-12T07:38:26;100016.06;;;46.95;12.39
72942;BME280;69665;55.822;37.330;2023-05-12T07:40:51;100016.22;;;46.75;12.18
72942;BME280;69665;55.822;37.330;2023-05-12T07:43:17;100017.97;;;48.31;11.63
72942;BME280;69665;55.822;37.330;2023-05-12T07:45:43;100012.53;;;48.16;11.68
72942;BME280;69665;55.822;37.330;2023-05-12T07:48:09;100022.19;;;47.37;12.00
72942;BME280;69665;55.822;37.330;2023-05-12T07:50:37;100014.47;;;47.28;11.88
72942;BME280;69665;55.822;37.330;2023-05-12T07:53:03;100005.50;;;46.92;11.96
72942;BME280;69665;55.822;37.330;2023-05-12T07:55:29;100007.44;;;47.65;12.12
72942;BME280;69665;55.822;37.330;2023-05-12T07:57:55;100016.75;;;47.21;11.85
72942;BME280;69665;55.822;37.330;2023-05-12T08:00:21;100017.97;;;47.44;11.34
72942;BME280;69665;55.822;37.330;2023-05-12T08:02:46;99992.94;;;47.92;10.98
72942;BME280;69665;55.822;37.330;2023-05-12T08:05:12;100009.38;;;47.99;10.99
72942;BME280;69665;55.822;37.330;2023-05-12T08:07:38;99991.81;;;47.93;11.71
72942;BME280;69665;55.822;37.330;2023-05-12T08:10:05;100009.00;;;47.81;11.01
72942;BME280;69665;55.822;37.330;2023-05-12T08:12:34;100005.06;;;47.53;10.00
72942;BME280;69665;55.822;37.330;2023-05-12T08:15:00;99996.13;;;45.12;12.29
72942;BME280;69665;55.822;37.330;2023-05-12T08:17:25;100001.69;;;42.91;12.66
72942;BME280;69665;55.822;37.330;2023-05-12T08:19:51;99993.63;;;42.90;12.88
72942;BME280;69665;55.822;37.330;2023-05-12T08:22:16;100005.03;;;41.06;12.75
72942;BME280;69665;55.822;37.330;2023-05-12T08:24:42;99995.19;;;41.60;12.60
72942;BME280;69665;55.822;37.330;2023-05-12T08:27:10;100002.72;;;41.81;12.51
72942;BME280;69665;55.822;37.330;2023-05-12T08:29:36;99996.72;;;40.37;13.46
72942;BME280;69665;55.822;37.330;2023-05-12T08:32:01;100010.47;;;37.99;13.97
72942;BME280;69665;55.822;37.330;2023-05-12T08:34:27;99973.84;;;36.03;13.70
72942;BME280;69665;55.822;37.330;2023-05-12T08:36:54;99990.03;;;34.86;14.21
72942;BME280;69665;55.822;37.330;2023-05-12T08:39:20;99979.16;;;35.25;14.19
72942;BME280;69665;55.822;37.330;2023-05-12T08:44:14;99971.25;;;34.69;14.40
72942;BME280;69665;55.822;37.330;2023-05-12T08:46:41;99985.88;;;34.08;14.94
72942;BME280;69665;55.822;37.330;2023-05-12T08:49:09;99977.28;;;33.05;14.55
72942;BME280;69665;55.822;37.330;2023-05-12T08:51:40;99986.50;;;32.18;15.15
72942;BME280;69665;55.822;37.330;2023-05-12T08:54:11;99973.22;;;31.18;14.97
72942;BME280;69665;55.822;37.330;2023-05-12T08:56:40;99976.31;;;33.34;13.89
72942;BME280;69665;55.822;37.330;2023-05-12T08:59:08;99978.84;;;36.70;13.36
72942;BME280;69665;55.822;37.330;2023-05-12T09:01:34;99974.47;;;38.00;12.98
72942;BME280;69665;55.822;37.330;2023-05-12T09:04:01;99977.94;;;39.64;12.00
72942;BME280;69665;55.822;37.330;2023-05-12T09:06:27;99978.25;;;41.23;11.68
72942;BME280;69665;55.822;37.330;2023-05-12T09:08:53;99977.78;;;41.98;11.76
72942;BME280;69665;55.822;37.330;2023-05-12T09:11:19;99966.56;;;42.26;10.81
72942;BME280;69665;55.822;37.330;2023-05-12T09:14:03;99964.78;;;42.86;8.84
72942;BME280;69665;55.822;37.330;2023-05-12T09:16:33;99961.78;;;42.92;10.92
72942;BME280;69665;55.822;37.330;2023-05-12T09:19:00;99957.34;;;39.13;13.09
72942;BME280;69665;55.822;37.330;2023-05-12T09:21:29;99969.25;;;36.55;13.90
72942;BME280;69665;55.822;37.330;2023-05-12T09:26:25;99978.91;;;33.21;14.13
72942;BME280;69665;55.822;37.330;2023-05-12T09:29:02;99975.66;;;31.65;14.78
72942;BME280;69665;55.822;37.330;2023-05-12T09:31:30;99963.47;;;30.70;14.86
72942;BME280;69665;55.822;37.330;2023-05-12T09:33:57;99970.06;;;30.06;15.23
72942;BME280;69665;55.822;37.330;2023-05-12T09:36:24;99972.22;;;29.47;15.04
72942;BME280;69665;55.822;37.330;2023-05-12T09:39:07;99956.84;;;28.48;14.70
72942;BME280;69665;55.822;37.330;2023-05-12T09:41:38;99952.06;;;28.00;15.14
72942;BME280;69665;55.822;37.330;2023-05-12T09:44:04;99957.34;;;28.10;15.34
72942;BME280;69665;55.822;37.330;2023-05-12T09:46:30;99967.25;;;27.93;15.16
72942;BME280;69665;55.822;37.330;2023-05-12T09:48:56;99961.78;;;27.85;15.22
72942;BME280;69665;55.822;37.330;2023-05-12T09:51:23;99960.00;;;27.67;15.61
72942;BME280;69665;55.822;37.330;2023-05-12T09:53:49;99966.88;;;27.36;15.99
72942;BME280;69665;55.822;37.330;2023-05-12T09:56:15;99971.28;;;26.66;16.21
72942;BME280;69665;55.822;37.330;2023-05-12T09:58:43;99974.44;;;26.07;16.10
72942;BME280;69665;55.822;37.330;2023-05-12T10:01:19;99935.41;;;25.54;16.58
72942;BME280;69665;55.822;37.330;2023-05-12T10:03:56;99960.56;;;25.45;16.62
72942;BME280;69665;55.822;37.330;2023-05-12T10:06:32;99964.25;;;25.63;16.59
72942;BME280;69665;55.822;37.330;2023-05-12T10:09:13;99951.94;;;26.16;16.30
72942;BME280;69665;55.822;37.330;2023-05-12T10:11:41;99935.81;;;26.51;16.39
72942;BME280;69665;55.822;37.330;2023-05-12T10:14:07;99950.91;;;26.72;15.96
72942;BME280;69665;55.822;37.330;2023-05-12T10:16:34;99941.47;;;26.93;16.34
72942;BME280;69665;55.822;37.330;2023-05-12T10:19:01;99951.28;;;26.94;16.08
72942;BME280;69665;55.822;37.330;2023-05-12T10:21:27;99947.56;;;26.60;16.33
72942;BME280;69665;55.822;37.330;2023-05-12T10:23:53;99951.22;;;26.23;16.24
72942;BME280;69665;55.822;37.330;2023-05-12T10:26:19;99942.03;;;26.07;16.05
72942;BME280;69665;55.822;37.330;2023-05-12T10:28:45;99961.66;;;26.09;16.23
72942;BME280;69665;55.822;37.330;2023-05-12T10:31:12;99952.69;;;26.08;16.32
72942;BME280;69665;55.822;37.330;2023-05-12T10:33:38;99935.53;;;25.99;16.63
72942;BME280;69665;55.822;37.330;2023-05-12T10:36:04;99951.22;;;25.96;16.60
72942;BME280;69665;55.822;37.330;2023-05-12T10:38:35;99937.28;;;25.63;16.60
72942;BME280;69665;55.822;37.330;2023-05-12T10:41:04;99956.19;;;25.44;16.42
72942;BME280;69665;55.822;37.330;2023-05-12T10:43:43;99952.59;;;25.53;16.30
72942;BME280;69665;55.822;37.330;2023-05-12T10:46:15;99955.78;;;25.86;16.56
72942;BME280;69665;55.822;37.330;2023-05-12T10:48:50;99955.06;;;25.84;16.29
72942;BME280;69665;55.822;37.330;2023-05-12T10:51:20;99966.75;;;25.75;16.36
72942;BME280;69665;55.822;37.330;2023-05-12T10:53:51;99952.47;;;25.64;16.41
72942;BME280;69665;55.822;37.330;2023-05-12T10:56:21;99950.69;;;25.73;16.19
72942;BME280;69665;55.822;37.330;2023-05-12T10:59:05;99956.13;;;26.00;16.02
72942;BME280;69665;55.822;37.330;2023-05-12T11:01:31;99952.59;;;26.00;16.17
72942;BME280;69665;55.822;37.330;2023-05-12T11:04:08;99944.19;;;26.03;16.36
72942;BME280;69665;55.822;37.330;2023-05-12T11:06:33;99943.41;;;25.93;16.33
72942;BME280;69665;55.822;37.330;2023-05-12T11:08:59;99941.63;;;25.74;16.48
72942;BME280;69665;55.822;37.330;2023-05-12T11:11:24;99937.41;;;25.52;16.36
72942;BME280;69665;55.822;37.330;2023-05-12T11:13:50;99922.97;;;25.44;16.18
72942;BME280;69665;55.822;37.330;2023-05-12T11:16:16;99933.84;;;25.61;16.66
72942;BME280;69665;55.822;37.330;2023-05-12T11:18:41;99917.38;;;25.55;16.63
72942;BME280;69665;55.822;37.330;2023-05-12T11:21:10;99929.75;;;25.48;16.22
72942;BME280;69665;55.822;37.330;2023-05-12T11:23:36;99941.56;;;25.27;16.58
72942;BME280;69665;55.822;37.330;2023-05-12T11:26:02;99940.88;;;25.25;16.50
72942;BME280;69665;55.822;37.330;2023-05-12T11:28:38;99917.34;;;25.18;16.44
72942;BME280;69665;55.822;37.330;2023-05-12T11:31:04;99928.75;;;25.49;16.45
72942;BME280;69665;55.822;37.330;2023-05-12T11:33:30;99931.28;;;25.69;16.13
72942;BME280;69665;55.822;37.330;2023-05-12T11:35:55;99934.69;;;25.72;16.26
72942;BME280;69665;55.822;37.330;2023-05-12T11:38:21;99919.22;;;25.64;16.55
72942;BME280;69665;55.822;37.330;2023-05-12T11:40:49;99925.13;;;25.77;16.28
72942;BME280;69665;55.822;37.330;2023-05-12T11:43:19;99920.88;;;25.75;16.43
72942;BME280;69665;55.822;37.330;2023-05-12T11:45:44;99905.22;;;25.88;16.30
72942;BME280;69665;55.822;37.330;2023-05-12T11:48:12;99909.09;;;26.03;16.31
72942;BME280;69665;55.822;37.330;2023-05-12T11:50:43;99917.31;;;26.11;16.34
72942;BME280;69665;55.822;37.330;2023-05-12T11:53:14;99913.16;;;26.17;16.26
72942;BME280;69665;55.822;37.330;2023-05-12T11:55:51;99909.06;;;26.13;16.21
72942;BME280;69665;55.822;37.330;2023-05-12T11:58:24;99898.44;;;26.01;16.50
72942;BME280;69665;55.822;37.330;2023-05-12T12:00:55;99911.19;;;26.09;16.12
72942;BME280;69665;55.822;37.330;2023-05-12T12:03:23;99916.56;;;26.19;16.41
72942;BME280;69665;55.822;37.330;2023-05-12T12:05:59;99913.00;;;26.18;16.25
72942;BME280;69665;55.822;37.330;2023-05-12T12:08:25;99910.91;;;26.12;16.09
72942;BME280;69665;55.822;37.330;2023-05-12T12:10:51;99910.56;;;25.97;16.60
72942;BME280;69665;55.822;37.330;2023-05-12T12:13:20;99897.28;;;25.77;16.47
72942;BME280;69665;55.822;37.330;2023-05-12T12:15:46;99903.63;;;25.48;16.68
72942;BME280;69665;55.822;37.330;2023-05-12T12:18:12;99908.22;;;25.38;16.78
72942;BME280;69665;55.822;37.330;2023-05-12T12:20:38;99897.88;;;25.24;16.85
72942;BME280;69665;55.822;37.330;2023-05-12T12:23:06;99907.94;;;25.31;16.88
72942;BME280;69665;55.822;37.330;2023-05-12T12:25:32;99893.03;;;25.27;17.05
72942;BME280;69665;55.822;37.330;2023-05-12T12:27:57;99899.44;;;25.26;16.75
72942;BME280;69665;55.822;37.330;2023-05-12T12:30:26;99901.56;;;25.32;17.02
72942;BME280;69665;55.822;37.330;2023-05-12T12:32:51;99889.03;;;25.41;16.86
72942;BME280;69665;55.822;37.330;2023-05-12T12:35:17;99884.66;;;25.40;16.76
72942;BME280;69665;55.822;37.330;2023-05-12T12:37:45;99876.56;;;25.30;16.69
72942;BME280;69665;55.822;37.330;2023-05-12T12:40:16;99891.84;;;25.49;16.82
72942;BME280;69665;55.822;37.330;2023-05-12T12:42:42;99871.22;;;25.58;16.83
72942;BME280;69665;55.822;37.330;2023-05-12T12:45:08;99885.75;;;25.84;16.95
72942;BME280;69665;55.822;37.330;2023-05-12T12:47:34;99875.47;;;25.97;16.95
72942;BME280;69665;55.822;37.330;2023-05-12T12:50:00;99856.63;;;25.88;16.90